Stolt Shearwater — ZCRD9 — position and weather

sailwx.info

Track history (hours):
 
Tides and Currents Weather Stations Pressure Air Temp Water Temp Dewpoint Dewpoint Depression Visibility Wind Speed Wind Dir Waves Ship Positions

Stolt Shearwater

Last reported at 2016-Jun-24 18:31 UTC. Time now 2016-Jun-25 05:14 UTC.
Position N 50°40' W 005°52'.

Length 96 m; draft 5.3 m.

Type: Ship. MMSI: 319402000.

Date/timePositionNaut miles runAvg speedWind from/ knotsBaromVisibWave heightAir tempDewpointWater temp
2016-Jun-24 18:31N 50°40' W 005°52'10 9.5
2016-Jun-24 17:31N 50°31' W 005°52'12 9.7
2016-Jun-24 16:17N 50°19' W 005°53'810.2
2016-Jun-24 15:33N 50°11' W 005°53'113 9.4
2016-Jun-24 03:33N 48°19' W 006°15'2010.0
2016-Jun-24 01:33N 48°01' W 006°04'29 9.5
2016-Jun-23 22:31N 47°34' W 005°47'28 8.6
2016-Jun-23 19:19N 47°09' W 005°30'7 8.5
2016-Jun-23 18:31N 47°03' W 005°25'241 7.1
2016-Jun-22 08:30N 43°22' W 003°08'0 0.0
2016-Jun-22 07:33N 43°22' W 003°08'1 0.0
2016-Jun-20 22:32N 43°23' W 003°08'2 0.2
2016-Jun-20 15:31N 43°24' W 003°07'16411.7
2016-Jun-20 01:29N 46°08' W 002°51'1210.6
2016-Jun-20 00:22N 46°19' W 002°49'911.1
2016-Jun-19 23:33N 46°28' W 002°48'1111.2
2016-Jun-19 22:32N 46°40' W 002°47'1111.1
2016-Jun-19 21:32N 46°51' W 002°46'1110.9
2016-Jun-19 20:33N 47°01' W 002°39'1212.3
2016-Jun-19 19:33N 47°07' W 002°24'1110.5
2016-Jun-19 18:32N 47°15' W 002°13'1110.9
2016-Jun-19 17:33N 47°17' W 001°58'1111.3
2016-Jun-19 16:33N 47°12' W 001°43'3 3.2
2016-Jun-19 15:30N 47°12' W 001°38'0 0.0
2016-Jun-19 14:33N 47°12' W 001°38'0 0.0
2016-Jun-19 13:33N 47°12' W 001°38'0 0.0
2016-Jun-19 12:30N 47°12' W 001°38'0 0.0
2016-Jun-19 11:30N 47°12' W 001°38'0 0.0
2016-Jun-19 10:33N 47°12' W 001°38'0 0.0
2016-Jun-19 09:33N 47°12' W 001°38'0 0.0
2016-Jun-19 08:33N 47°12' W 001°38'0 0.0
2016-Jun-19 07:33N 47°12' W 001°38'0 0.0
2016-Jun-19 06:33N 47°12' W 001°38'0 0.0
2016-Jun-19 05:33N 47°12' W 001°38'0 0.0
2016-Jun-19 04:30N 47°12' W 001°38'0 0.0
2016-Jun-19 03:33N 47°12' W 001°38'1 1.1
2016-Jun-19 02:33N 47°12' W 001°40'9 8.7
2016-Jun-19 01:33N 47°15' W 001°51'1110.9
2016-Jun-19 00:33N 47°18' W 002°07'1111.4
2016-Jun-18 23:33N 47°10' W 002°18'8 8.2
2016-Jun-18 22:33N 47°04' W 002°27'7 7.4
2016-Jun-18 21:33N 47°01' W 002°36'7 7.2
2016-Jun-18 20:33N 47°01' W 002°47'8 8.0
2016-Jun-18 19:33N 47°03' W 002°58'8 8.1
2016-Jun-18 18:33N 47°07' W 003°09'8 8.1
2016-Jun-18 17:33N 47°10' W 003°20'8 8.3
2016-Jun-18 16:33N 47°14' W 003°30'8 8.3
2016-Jun-18 15:33N 47°18' W 003°41'9 8.5
2016-Jun-18 14:33N 47°23' W 003°51'9 8.5
2016-Jun-18 13:29N 47°28' W 004°02'33 8.5
2016-Jun-18 09:33N 47°45' W 004°44'9 8.5
2016-Jun-18 08:33N 47°50' W 004°55'9 8.8
2016-Jun-18 07:34N 47°54' W 005°06'9 8.9
2016-Jun-18 06:34N 47°59' W 005°18'1110.9
2016-Jun-18 05:33N 48°07' W 005°29'124 8.2
2016-Jun-17 14:30N 49°44' W 003°33'1010.3
2016-Jun-17 13:33N 49°49' W 003°20'1111.2
2016-Jun-17 12:34N 49°54' W 003°05'1211.9
2016-Jun-17 11:32N 49°59' W 002°47'9110.1
2016-Jun-17 02:27N 50°25' W 000°30'1111.8
2016-Jun-17 01:33N 50°28' W 000°14'1211.9
2016-Jun-17 00:33N 50°32' E 000°04'1211.8
2016-Jun-16 23:33N 50°35' E 000°22'4110.2
2016-Jun-16 19:33N 50°58' E 001°14'1110.7
2016-Jun-16 18:34N 51°05' E 001°28'1312.7
2016-Jun-16 17:33N 51°13' E 001°43'1312.7
2016-Jun-16 16:33N 51°24' E 001°53'1211.8
2016-Jun-16 15:33N 51°33' E 002°05'1111.1
2016-Jun-16 14:33N 51°41' E 002°17'1310.3
2016-Jun-16 13:20N 51°51' E 002°31'8 9.9
2016-Jun-16 12:33N 51°57' E 002°38'12610.3
2016-Jun-16 00:14N 53°32' E 004°56'710.8
2016-Jun-15 23:33N 53°35' E 005°07'1211.6
2016-Jun-15 22:33N 53°39' E 005°25'1211.8
2016-Jun-15 21:33N 53°43' E 005°44'1211.7
2016-Jun-15 20:33N 53°47' E 006°03'1111.1
2016-Jun-15 19:33N 53°50' E 006°21'1010.4
2016-Jun-15 18:33N 53°53' E 006°38'1010.0
2016-Jun-15 17:33N 53°55' E 006°54'10 9.8
2016-Jun-15 16:33N 53°58' E 007°10'10 9.8
2016-Jun-15 15:32N 54°00' E 007°27'1010.1
2016-Jun-15 14:33N 54°02' E 007°44'1111.0
2016-Jun-15 13:33N 54°01' E 008°02'1211.4
2016-Jun-15 12:32N 53°60' E 008°22'1212.5
2016-Jun-15 11:33N 53°55' E 008°41'1110.9
2016-Jun-15 10:34N 53°51' E 008°58'10 9.7
2016-Jun-15 09:34N 53°53' E 009°15'9 8.6
2016-Jun-15 08:34N 53°46' E 009°24'8 8.1
2016-Jun-15 07:34N 53°39' E 009°31'8 8.0
2016-Jun-15 06:34N 53°34' E 009°41'9 8.7
2016-Jun-15 05:33N 53°32' E 009°56'2 2.0
2016-Jun-15 04:32N 53°31' E 009°57'0 0.0
2016-Jun-15 03:26N 53°31' E 009°57'0 0.0
2016-Jun-15 02:29N 53°31' E 009°57'0 0.0
2016-Jun-15 01:32N 53°31' E 009°57'0 0.0
2016-Jun-15 00:32N 53°31' E 009°57'0 0.0
2016-Jun-14 23:32N 53°31' E 009°57'0 0.0
2016-Jun-14 22:32N 53°31' E 009°57'0 0.0
2016-Jun-14 21:32N 53°31' E 009°57'0 0.0
2016-Jun-14 20:32N 53°31' E 009°57'0 0.0
2016-Jun-14 19:32N 53°31' E 009°57'0 0.0
2016-Jun-14 18:32N 53°31' E 009°57'  
Track history (hours):
 
Tides and Currents Weather Stations Pressure Air Temp Water Temp Dewpoint Dewpoint Depression Visibility Wind Speed Wind Dir Waves Ship Positions

Stolt Shearwater

Last reported at 2016-Jun-24 18:31 UTC. Time now 2016-Jun-25 05:14 UTC.
Position N 50°40' W 005°52'.

Length 96 m; draft 5.3 m.

Type: Ship. MMSI: 319402000.

Date/timePositionNaut miles runAvg speedWind from/ knotsBaromVisibWave heightAir tempDewpointWater temp
2016-Jun-24 18:31N 50°40' W 005°52'10 9.5
2016-Jun-24 17:31N 50°31' W 005°52'12 9.7
2016-Jun-24 16:17N 50°19' W 005°53'810.2
2016-Jun-24 15:33N 50°11' W 005°53'113 9.4
2016-Jun-24 03:33N 48°19' W 006°15'2010.0
2016-Jun-24 01:33N 48°01' W 006°04'29 9.5
2016-Jun-23 22:31N 47°34' W 005°47'28 8.6
2016-Jun-23 19:19N 47°09' W 005°30'7 8.5
2016-Jun-23 18:31N 47°03' W 005°25'241 7.1
2016-Jun-22 08:30N 43°22' W 003°08'0 0.0
2016-Jun-22 07:33N 43°22' W 003°08'1 0.0
2016-Jun-20 22:32N 43°23' W 003°08'2 0.2
2016-Jun-20 15:31N 43°24' W 003°07'16411.7
2016-Jun-20 01:29N 46°08' W 002°51'1210.6
2016-Jun-20 00:22N 46°19' W 002°49'911.1
2016-Jun-19 23:33N 46°28' W 002°48'1111.2
2016-Jun-19 22:32N 46°40' W 002°47'1111.1
2016-Jun-19 21:32N 46°51' W 002°46'1110.9
2016-Jun-19 20:33N 47°01' W 002°39'1212.3
2016-Jun-19 19:33N 47°07' W 002°24'1110.5
2016-Jun-19 18:32N 47°15' W 002°13'1110.9
2016-Jun-19 17:33N 47°17' W 001°58'1111.3
2016-Jun-19 16:33N 47°12' W 001°43'3 3.2
2016-Jun-19 15:30N 47°12' W 001°38'0 0.0
2016-Jun-19 14:33N 47°12' W 001°38'0 0.0
2016-Jun-19 13:33N 47°12' W 001°38'0 0.0
2016-Jun-19 12:30N 47°12' W 001°38'0 0.0
2016-Jun-19 11:30N 47°12' W 001°38'0 0.0
2016-Jun-19 10:33N 47°12' W 001°38'0 0.0
2016-Jun-19 09:33N 47°12' W 001°38'0 0.0
2016-Jun-19 08:33N 47°12' W 001°38'0 0.0
2016-Jun-19 07:33N 47°12' W 001°38'0 0.0
2016-Jun-19 06:33N 47°12' W 001°38'0 0.0
2016-Jun-19 05:33N 47°12' W 001°38'0 0.0
2016-Jun-19 04:30N 47°12' W 001°38'0 0.0
2016-Jun-19 03:33N 47°12' W 001°38'1 1.1
2016-Jun-19 02:33N 47°12' W 001°40'9 8.7
2016-Jun-19 01:33N 47°15' W 001°51'1110.9
2016-Jun-19 00:33N 47°18' W 002°07'1111.4
2016-Jun-18 23:33N 47°10' W 002°18'8 8.2
2016-Jun-18 22:33N 47°04' W 002°27'7 7.4
2016-Jun-18 21:33N 47°01' W 002°36'7 7.2
2016-Jun-18 20:33N 47°01' W 002°47'8 8.0
2016-Jun-18 19:33N 47°03' W 002°58'8 8.1
2016-Jun-18 18:33N 47°07' W 003°09'8 8.1
2016-Jun-18 17:33N 47°10' W 003°20'8 8.3
2016-Jun-18 16:33N 47°14' W 003°30'8 8.3
2016-Jun-18 15:33N 47°18' W 003°41'9 8.5
2016-Jun-18 14:33N 47°23' W 003°51'9 8.5
2016-Jun-18 13:29N 47°28' W 004°02'33 8.5
2016-Jun-18 09:33N 47°45' W 004°44'9 8.5
2016-Jun-18 08:33N 47°50' W 004°55'9 8.8
2016-Jun-18 07:34N 47°54' W 005°06'9 8.9
2016-Jun-18 06:34N 47°59' W 005°18'1110.9
2016-Jun-18 05:33N 48°07' W 005°29'124 8.2
2016-Jun-17 14:30N 49°44' W 003°33'1010.3
2016-Jun-17 13:33N 49°49' W 003°20'1111.2
2016-Jun-17 12:34N 49°54' W 003°05'1211.9
2016-Jun-17 11:32N 49°59' W 002°47'9110.1
2016-Jun-17 02:27N 50°25' W 000°30'1111.8
2016-Jun-17 01:33N 50°28' W 000°14'1211.9
2016-Jun-17 00:33N 50°32' E 000°04'1211.8
2016-Jun-16 23:33N 50°35' E 000°22'4110.2
2016-Jun-16 19:33N 50°58' E 001°14'1110.7
2016-Jun-16 18:34N 51°05' E 001°28'1312.7
2016-Jun-16 17:33N 51°13' E 001°43'1312.7
2016-Jun-16 16:33N 51°24' E 001°53'1211.8
2016-Jun-16 15:33N 51°33' E 002°05'1111.1
2016-Jun-16 14:33N 51°41' E 002°17'1310.3
2016-Jun-16 13:20N 51°51' E 002°31'8 9.9
2016-Jun-16 12:33N 51°57' E 002°38'12610.3
2016-Jun-16 00:14N 53°32' E 004°56'710.8
2016-Jun-15 23:33N 53°35' E 005°07'1211.6
2016-Jun-15 22:33N 53°39' E 005°25'1211.8
2016-Jun-15 21:33N 53°43' E 005°44'1211.7
2016-Jun-15 20:33N 53°47' E 006°03'1111.1
2016-Jun-15 19:33N 53°50' E 006°21'1010.4
2016-Jun-15 18:33N 53°53' E 006°38'1010.0
2016-Jun-15 17:33N 53°55' E 006°54'10 9.8
2016-Jun-15 16:33N 53°58' E 007°10'10 9.8
2016-Jun-15 15:32N 54°00' E 007°27'1010.1
2016-Jun-15 14:33N 54°02' E 007°44'1111.0
2016-Jun-15 13:33N 54°01' E 008°02'1211.4
2016-Jun-15 12:32N 53°60' E 008°22'1212.5
2016-Jun-15 11:33N 53°55' E 008°41'1110.9
2016-Jun-15 10:34N 53°51' E 008°58'10 9.7
2016-Jun-15 09:34N 53°53' E 009°15'9 8.6
2016-Jun-15 08:34N 53°46' E 009°24'8 8.1
2016-Jun-15 07:34N 53°39' E 009°31'8 8.0
2016-Jun-15 06:34N 53°34' E 009°41'9 8.7
2016-Jun-15 05:33N 53°32' E 009°56'2 2.0
2016-Jun-15 04:32N 53°31' E 009°57'0 0.0
2016-Jun-15 03:26N 53°31' E 009°57'0 0.0
2016-Jun-15 02:29N 53°31' E 009°57'0 0.0
2016-Jun-15 01:32N 53°31' E 009°57'0 0.0
2016-Jun-15 00:32N 53°31' E 009°57'0 0.0
2016-Jun-14 23:32N 53°31' E 009°57'0 0.0
2016-Jun-14 22:32N 53°31' E 009°57'0 0.0
2016-Jun-14 21:32N 53°31' E 009°57'0 0.0
2016-Jun-14 20:32N 53°31' E 009°57'0 0.0
2016-Jun-14 19:32N 53°31' E 009°57'0 0.0
2016-Jun-14 18:32N 53°31' E 009°57'  

Dump ship's entire track history